| time (UTC) | temp F | wind direction | speed knots | gust knots | rain 1hr in | rain 24hr in | rain mn in | humidity % | barometer mb |
| 20260505035629 | 64 | 194 | 1.7 | 5.2 | 0.00 | 0.00 | 0.00 | 55 | 980.8 |
| 20260505035129 | 64 | 172 | 1.7 | 4.3 | 0.00 | 0.00 | 0.00 | 55 | 980.9 |
| 20260505034629 | 64 | 178 | 0.9 | 7.0 | 0.00 | 0.00 | 0.00 | 55 | 980.9 |
| 20260505034129 | 64 | 194 | 1.7 | 7.0 | 0.00 | 0.00 | 0.00 | 55 | 980.9 |
| 20260505033628 | 64 | 206 | 0.9 | 5.2 | 0.00 | 0.00 | 0.00 | 55 | 980.9 |
| 20260505033131 | 64 | 180 | 0.9 | 5.2 | 0.00 | 0.00 | 0.00 | 55 | 981.0 |
| 20260505032134 | 64 | 217 | 1.7 | 6.1 | 0.00 | 0.00 | 0.00 | 55 | 980.9 |
| 20260505031626 | 64 | 173 | 1.7 | 4.3 | 0.00 | 0.00 | 0.00 | 54 | 980.8 |
| 20260505031126 | 64 | 173 | 0.9 | 4.3 | 0.00 | 0.00 | 0.00 | 54 | 981.0 |
| 20260505025620 | 64 | 157 | 1.7 | 4.3 | 0.00 | 0.00 | 0.00 | 54 | 981.0 |
| 20260505025115 | 64 | 180 | 1.7 | 3.5 | 0.00 | 0.00 | 0.00 | 54 | 981.0 |
| 20260505024617 | 65 | 173 | 1.7 | 5.2 | 0.00 | 0.00 | 0.00 | 54 | 981.0 |
| 20260505023608 | 65 | 212 | 0.0 | 2.6 | 0.00 | 0.00 | 0.00 | 54 | 981.1 |
| 20260505023107 | 65 | 188 | 0.9 | 4.3 | 0.00 | 0.00 | 0.00 | 54 | 981.0 |
| 20260505022602 | 65 | 181 | 1.7 | 4.3 | 0.00 | 0.00 | 0.00 | 54 | 981.1 |
| 20260505022103 | 65 | 180 | 0.9 | 4.3 | 0.00 | 0.00 | 0.00 | 53 | 981.0 |
| 20260505021603 | 65 | 223 | 0.0 | 4.3 | 0.00 | 0.00 | 0.00 | 53 | 980.9 |
| 20260505021102 | 65 | 176 | 0.9 | 3.5 | 0.00 | 0.00 | 0.00 | 53 | 980.9 |
| 20260505020601 | 66 | 183 | 0.9 | 2.6 | 0.00 | 0.00 | 0.00 | 52 | 980.9 |
| 20260505015602 | 66 | 183 | 1.7 | 7.0 | 0.00 | 0.00 | 0.00 | 51 | 980.8 |
| 20260505015102 | 66 | 188 | 0.9 | 4.3 | 0.00 | 0.00 | 0.00 | 52 | 980.7 |
| 20260505014101 | 67 | 154 | 0.9 | 4.3 | 0.00 | 0.00 | 0.00 | 50 | 980.9 |
| 20260505013603 | 67 | 245 | 1.7 | 4.3 | 0.00 | 0.00 | 0.00 | 51 | 980.8 |
| 20260505013101 | 67 | 183 | 1.7 | 5.2 | 0.00 | 0.00 | 0.00 | 50 | 980.7 |
| 20260505012601 | 67 | 169 | 0.9 | 7.0 | 0.00 | 0.00 | 0.00 | 50 | 980.6 |
| 20260505012101 | 67 | 156 | 1.7 | 7.0 | 0.00 | 0.00 | 0.00 | 50 | 980.6 |
| 20260505011601 | 67 | 193 | 2.6 | 5.2 | 0.00 | 0.00 | 0.00 | 49 | 980.4 |
| 20260505011101 | 67 | 186 | 1.7 | 7.0 | 0.00 | 0.00 | 0.00 | 49 | 980.3 |
| 20260505010600 | 67 | 262 | 2.6 | 7.0 | 0.00 | 0.00 | 0.00 | 49 | 980.4 |
| 20260505005603 | 67 | 174 | 1.7 | 4.3 | 0.00 | 0.00 | 0.00 | 48 | 980.2 |
| 20260505005104 | 67 | 190 | 1.7 | 5.2 | 0.00 | 0.00 | 0.00 | 48 | 980.2 |
| 20260505004601 | 68 | 247 | 1.7 | 5.2 | 0.00 | 0.00 | 0.00 | 48 | 980.1 |
| 20260505003603 | 68 | 155 | 1.7 | 5.2 | 0.00 | 0.00 | 0.00 | 47 | 980.1 |
| 20260505003100 | 68 | 197 | 1.7 | 5.2 | 0.00 | 0.00 | 0.00 | 47 | 980.1 |
| 20260505002602 | 68 | 160 | 1.7 | 5.2 | 0.00 | 0.00 | 0.00 | 47 | 980.0 |
| 20260505002100 | 69 | 159 | 0.9 | 5.2 | 0.00 | 0.00 | 0.00 | 46 | 980.2 |
| 20260505001556 | 69 | 171 | 0.9 | 4.3 | 0.00 | 0.00 | 0.00 | 46 | 980.1 |
| 20260505001048 | 69 | 189 | 1.7 | 4.3 | 0.00 | 0.00 | 0.00 | 46 | 980.1 |
| 20260505000546 | 69 | 114 | 1.7 | 4.3 | 0.00 | 0.00 | 0.00 | 45 | 980.0 |
| 20260505000044 | 69 | 202 | 1.7 | 6.1 | 0.00 | 0.00 | 0.00 | 45 | 980.0 |
| 20260504235042 | 69 | 144 | 1.7 | 7.0 | 0.00 | 0.00 | 0.00 | 44 | 980.0 |
| 20260504234537 | 69 | 144 | 1.7 | 5.2 | 0.00 | 0.00 | 0.00 | 44 | 979.9 |
| 20260504234029 | 70 | 237 | 1.7 | 5.2 | 0.00 | 0.00 | 0.00 | 44 | 979.9 |
| 20260504233529 | 70 | 196 | 1.7 | 5.2 | 0.00 | 0.00 | 0.00 | 43 | 979.9 |
| 20260504233033 | 70 | 150 | 0.9 | 6.1 | 0.00 | 0.00 | 0.00 | 43 | 979.9 |
| 20260504232530 | 71 | 264 | 2.6 | 6.1 | 0.00 | 0.00 | 0.00 | 42 | 979.9 |
| 20260504232030 | 71 | 169 | 0.9 | 7.0 | 0.00 | 0.00 | 0.00 | 43 | 979.9 |
| 20260504231533 | 71 | 126 | 0.9 | 7.0 | 0.00 | 0.00 | 0.00 | 43 | 979.9 |
| 20260504231029 | 71 | 168 | 0.9 | 4.3 | 0.00 | 0.00 | 0.00 | 43 | 979.9 |
| 20260504230030 | 72 | 182 | 1.7 | 3.5 | 0.00 | 0.00 | 0.00 | 41 | 980.0 |
| 20260504225032 | 72 | 153 | 0.9 | 9.6 | 0.00 | 0.00 | 0.00 | 42 | 980.1 |
| 20260504224531 | 72 | 96 | 2.6 | 9.6 | 0.00 | 0.00 | 0.00 | 40 | 980.0 |
| 20260504224029 | 72 | 177 | 1.7 | 6.1 | 0.00 | 0.00 | 0.00 | 41 | 979.9 |
| 20260504223529 | 72 | 169 | 0.9 | 6.1 | 0.00 | 0.00 | 0.00 | 41 | 979.9 |
| 20260504223029 | 72 | 173 | 1.7 | 7.8 | 0.00 | 0.00 | 0.00 | 40 | 979.9 |
| 20260504222530 | 72 | 251 | 1.7 | 7.8 | 0.00 | 0.00 | 0.00 | 41 | 979.9 |
| 20260504222029 | 72 | 199 | 3.5 | 7.8 | 0.00 | 0.00 | 0.00 | 39 | 979.9 |
| 20260504220529 | 72 | 222 | 0.9 | 6.1 | 0.00 | 0.00 | 0.00 | 41 | 980.0 |
| 20260504220030 | 72 | 140 | 1.7 | 6.1 | 0.00 | 0.00 | 0.00 | 40 | 980.0 |
| 20260504215529 | 72 | 232 | 1.7 | 7.8 | 0.00 | 0.00 | 0.00 | 40 | 980.0 |
| 20260504215028 | 73 | 225 | 2.6 | 9.6 | 0.00 | 0.00 | 0.00 | 39 | 980.1 |
| 20260504214530 | 73 | 161 | 1.7 | 9.6 | 0.00 | 0.00 | 0.00 | 39 | 980.0 |
| 20260504214026 | 73 | 192 | 0.9 | 11.3 | 0.00 | 0.00 | 0.00 | 40 | 979.9 |
| 20260504213516 | 73 | 132 | 1.7 | 11.3 | 0.00 | 0.00 | 0.00 | 40 | 980.0 |
| 20260504213014 | 73 | 132 | 1.7 | 8.7 | 0.00 | 0.00 | 0.00 | 39 | 980.0 |
| 20260504212512 | 73 | 169 | 2.6 | 8.7 | 0.00 | 0.00 | 0.00 | 40 | 980.1 |
| 20260504212013 | 73 | 143 | 2.6 | 7.0 | 0.00 | 0.00 | 0.00 | 38 | 980.0 |
| 20260504211508 | 73 | 204 | 3.5 | 7.0 | 0.00 | 0.00 | 0.00 | 38 | 980.0 |
| 20260504210004 | 74 | 54 | 1.7 | 7.8 | 0.00 | 0.00 | 0.00 | 41 | 980.0 |
| 20260504205501 | 74 | 329 | 0.9 | 7.8 | 0.00 | 0.00 | 0.00 | 40 | 980.0 |
| 20260504205001 | 73 | 140 | 2.6 | 6.1 | 0.00 | 0.00 | 0.00 | 38 | 980.0 |
| 20260504204001 | 73 | 247 | 2.6 | 7.8 | 0.00 | 0.00 | 0.00 | 39 | 980.0 |
| 20260504203506 | 74 | 171 | 1.7 | 9.6 | 0.00 | 0.00 | 0.00 | 40 | 980.0 |
| 20260504203006 | 74 | 182 | 1.7 | 9.6 | 0.00 | 0.00 | 0.00 | 39 | 980.0 |
| 20260504202502 | 74 | 58 | 2.6 | 6.1 | 0.00 | 0.00 | 0.00 | 40 | 980.1 |
| 20260504202000 | 75 | 236 | 1.7 | 7.8 | 0.00 | 0.00 | 0.00 | 41 | 980.2 |
| 20260504201503 | 75 | 131 | 0.9 | 7.8 | 0.00 | 0.00 | 0.00 | 41 | 980.3 |
| 20260504200459 | 75 | 171 | 0.0 | 6.1 | 0.00 | 0.00 | 0.00 | 43 | 980.5 |
| 20260504195959 | 74 | 306 | 1.7 | 7.8 | 0.00 | 0.00 | 0.00 | 41 | 980.7 |
| 20260504195459 | 74 | 179 | 1.7 | 9.6 | 0.00 | 0.00 | 0.00 | 41 | 980.6 |
| 20260504194952 | 74 | 165 | 4.3 | 9.6 | 0.00 | 0.00 | 0.00 | 39 | 980.7 |
| 20260504194454 | 75 | 247 | 0.9 | 6.1 | 0.00 | 0.00 | 0.00 | 41 | 980.7 |
| 20260504193950 | 74 | 309 | 1.7 | 10.4 | 0.00 | 0.00 | 0.00 | 41 | 980.7 |
| 20260504193450 | 74 | 236 | 2.6 | 10.4 | 0.00 | 0.00 | 0.00 | 39 | 981.0 |
| 20260504192948 | 74 | 177 | 2.6 | 6.1 | 0.00 | 0.00 | 0.00 | 40 | 981.0 |
| 20260504192447 | 74 | 159 | 0.9 | 8.7 | 0.00 | 0.00 | 0.00 | 42 | 981.1 |
| 20260504191947 | 74 | 190 | 3.5 | 8.7 | 0.00 | 0.00 | 0.00 | 40 | 981.3 |
| 20260504191442 | 74 | 161 | 0.9 | 7.8 | 0.00 | 0.00 | 0.00 | 42 | 981.3 |
| 20260504190942 | 74 | 173 | 1.7 | 7.8 | 0.00 | 0.00 | 0.00 | 41 | 981.4 |
| 20260504190440 | 74 | 178 | 0.9 | 6.1 | 0.00 | 0.00 | 0.00 | 42 | 981.4 |
| 20260504185941 | 74 | 187 | 2.6 | 6.1 | 0.00 | 0.00 | 0.00 | 38 | 981.4 |
| 20260504185438 | 73 | 226 | 1.7 | 7.0 | 0.00 | 0.00 | 0.00 | 43 | 981.5 |
| 20260504184934 | 73 | 220 | 1.7 | 7.0 | 0.00 | 0.00 | 0.00 | 41 | 981.6 |
| 20260504183930 | 72 | 184 | 1.7 | 8.7 | 0.00 | 0.00 | 0.00 | 42 | 982.0 |
| 20260504182929 | 72 | 148 | 1.7 | 7.0 | 0.00 | 0.00 | 0.00 | 41 | 981.9 |
| 20260504182430 | 73 | 200 | 1.7 | 8.7 | 0.00 | 0.00 | 0.00 | 40 | 982.0 |
| 20260504181930 | 72 | 246 | 2.6 | 8.7 | 0.00 | 0.00 | 0.00 | 41 | 982.1 |
| 20260504181429 | 72 | 151 | 1.7 | 7.0 | 0.00 | 0.00 | 0.00 | 41 | 982.2 |
| 20260504180930 | 72 | 211 | 1.7 | 7.0 | 0.00 | 0.00 | 0.00 | 42 | 982.3 |
| 20260504180430 | 71 | 188 | 1.7 | 9.6 | 0.00 | 0.00 | 0.00 | 40 | 982.3 |
| 20260504175932 | 71 | 140 | 4.3 | 9.6 | 0.00 | 0.00 | 0.00 | 40 | 982.5 |
| 20260504175429 | 72 | 245 | 3.5 | 8.7 | 0.00 | 0.00 | 0.00 | 41 | 982.4 |
| 20260504174930 | 72 | 177 | 2.6 | 6.1 | 0.00 | 0.00 | 0.00 | 39 | 982.3 |
| 20260504174429 | 73 | 184 | 2.6 | 6.1 | 0.00 | 0.00 | 0.00 | 40 | 982.5 |
| 20260504173930 | 73 | 130 | 1.7 | 4.3 | 0.00 | 0.00 | 0.00 | 43 | 982.5 |
| 20260504173429 | 73 | 204 | 1.7 | 5.2 | 0.00 | 0.00 | 0.00 | 43 | 982.4 |
| 20260504172929 | 72 | 246 | 1.7 | 5.2 | 0.00 | 0.00 | 0.00 | 42 | 982.6 |
| 20260504172431 | 72 | 312 | 1.7 | 5.2 | 0.00 | 0.00 | 0.00 | 41 | 982.6 |
| 20260504170930 | 71 | 204 | 1.7 | 6.1 | 0.00 | 0.00 | 0.00 | 41 | 982.8 |
| 20260504170431 | 71 | 27 | 1.7 | 7.8 | 0.00 | 0.00 | 0.00 | 42 | 982.7 |
| 20260504160430 | 70 | 184 | 3.5 | 6.1 | 0.00 | 0.00 | 0.00 | 42 | 983.4 |
| 20260504150426 | 67 | 134 | 1.7 | 7.0 | 0.00 | 0.00 | 0.00 | 43 | 983.9 |
| 20260504140902 | 64 | 149 | 1.7 | 4.3 | 0.00 | 0.00 | 0.00 | 44 | 983.9 |
| 20260504140402 | 64 | 221 | 1.7 | 3.5 | 0.00 | 0.00 | 0.00 | 47 | 983.8 |
| 20260504130402 | 58 | 209 | 1.7 | 3.5 | 0.00 | 0.00 | 0.00 | 52 | 984.3 |
| 20260504110328 | 48 | 238 | 0.9 | 4.3 | 0.00 | 0.00 | 0.00 | 55 | 984.5 |
| 20260504100304 | 48 | 169 | 0.9 | 4.3 | 0.00 | 0.00 | 0.00 | 57 | 984.3 |
| 20260504081802 | 46 | 239 | 0.0 | 0.0 | 0.00 | 0.00 | 0.00 | 57 | 984.7 |
| 20260504081302 | 46 | 239 | 0.0 | 0.0 | 0.00 | 0.00 | 0.00 | 57 | 984.7 |
| 20260504080807 | 45 | 239 | 0.0 | 0.0 | 0.00 | 0.00 | 0.00 | 57 | 984.7 |
| 20260504080300 | 45 | 239 | 0.0 | 0.0 | 0.00 | 0.00 | 0.00 | 57 | 984.8 |
| 20260504070303 | 45 | 294 | 0.0 | 0.0 | 0.00 | 0.00 | 0.00 | 57 | 984.7 |
| 20260504050731 | 45 | 294 | 0.0 | 0.0 | 0.00 | 0.00 | 0.00 | 58 | 985.5 |
| 20260504045219 | 46 | 294 | 0.0 | 0.0 | 0.00 | 0.00 | 0.00 | 57 | 985.5 |
| 20260504044710 | 46 | 294 | 0.0 | 0.0 | 0.00 | 0.00 | 0.00 | 58 | 985.5 |
| 20260504043707 | 46 | 294 | 0.0 | 0.0 | 0.00 | 0.00 | 0.00 | 55 | 985.4 |
| 20260504043205 | 46 | 294 | 0.0 | 0.0 | 0.00 | 0.00 | 0.00 | 56 | 985.5 |
| 20260504042705 | 46 | 294 | 0.0 | 0.0 | 0.00 | 0.00 | 0.00 | 57 | 985.4 |
| 20260504042204 | 47 | 294 | 0.0 | 0.0 | 0.00 | 0.00 | 0.00 | 58 | 985.5 |
| 20260504041706 | 47 | 294 | 0.0 | 0.0 | 0.00 | 0.00 | 0.00 | 56 | 985.4 |
| 20260504041200 | 47 | 294 | 0.0 | 0.0 | 0.00 | 0.00 | 0.00 | 54 | 985.3 |
| 20260504040201 | 46 | 294 | 0.0 | 0.0 | 0.00 | 0.00 | 0.00 | 54 | 985.2 |